地図

経路データ

SID SEASON NUMBER BASIN SUBBASIN NAME ISO_TIME NATURE LAT LON WMO_WIND WMO_PRES WMO_AGENCY TRACK_TYPE DIST2LAND LANDFALL IFLAG USA_AGENCY USA_ATCF_ID USA_LAT USA_LON USA_RECORD USA_STATUS USA_WIND USA_PRES USA_SSHS USA_R34_NE USA_R34_SE USA_R34_SW USA_R34_NW USA_R50_NE USA_R50_SE USA_R50_SW USA_R50_NW USA_R64_NE USA_R64_SE USA_R64_SW USA_R64_NW USA_POCI USA_ROCI USA_RMW USA_EYE TOKYO_LAT TOKYO_LON TOKYO_GRADE TOKYO_WIND TOKYO_PRES TOKYO_R50_DIR TOKYO_R50_LONG TOKYO_R50_SHORT TOKYO_R30_DIR TOKYO_R30_LONG TOKYO_R30_SHORT TOKYO_LAND CMA_LAT CMA_LON CMA_CAT CMA_WIND CMA_PRES HKO_LAT HKO_LON HKO_CAT HKO_WIND HKO_PRES NEWDELHI_LAT NEWDELHI_LON NEWDELHI_GRADE NEWDELHI_WIND NEWDELHI_PRES NEWDELHI_CI NEWDELHI_DP NEWDELHI_POCI REUNION_LAT REUNION_LON REUNION_TYPE REUNION_WIND REUNION_PRES REUNION_TNUM REUNION_CI REUNION_RMW REUNION_R34_NE REUNION_R34_SE REUNION_R34_SW REUNION_R34_NW REUNION_R50_NE REUNION_R50_SE REUNION_R50_SW REUNION_R50_NW REUNION_R64_NE REUNION_R64_SE REUNION_R64_SW REUNION_R64_NW BOM_LAT BOM_LON BOM_TYPE BOM_WIND BOM_PRES BOM_TNUM BOM_CI BOM_RMW BOM_R34_NE BOM_R34_SE BOM_R34_SW BOM_R34_NW BOM_R50_NE BOM_R50_SE BOM_R50_SW BOM_R50_NW BOM_R64_NE BOM_R64_SE BOM_R64_SW BOM_R64_NW BOM_ROCI BOM_POCI BOM_EYE BOM_POS_METHOD BOM_PRES_METHOD NADI_LAT NADI_LON NADI_CAT NADI_WIND NADI_PRES WELLINGTON_LAT WELLINGTON_LON WELLINGTON_WIND WELLINGTON_PRES DS824_LAT DS824_LON DS824_STAGE DS824_WIND DS824_PRES TD9636_LAT TD9636_LON TD9636_STAGE TD9636_WIND TD9636_PRES TD9635_LAT TD9635_LON TD9635_WIND TD9635_PRES TD9635_ROCI NEUMANN_LAT NEUMANN_LON NEUMANN_CLASS NEUMANN_WIND NEUMANN_PRES MLC_LAT MLC_LON MLC_CLASS MLC_WIND MLC_PRES USA_GUST BOM_GUST BOM_GUST_PER REUNION_GUST REUNION_GUST_PER USA_SEAHGT USA_SEARAD_NE USA_SEARAD_SE USA_SEARAD_SW USA_SEARAD_NW STORM_SPEED STORM_DIR
1899285N11082 1899 40 NI BB NOT_NAMED 1899-10-12 00:00:00 TS 11.4000 82.1000 main 240 230 _________O____ -1 11.4000 82.1000 TC 30 5 8
1899285N11082 1899 40 NI BB NOT_NAMED 1899-10-12 03:00:00 TS 11.6350 82.1350 main 230 225 _________PO___ -1 11.7525 82.1525 TC 30 11.4000 82.1000 1 6 7
1899285N11082 1899 40 NI BB NOT_NAMED 1899-10-12 06:00:00 TS 11.9525 82.1750 main 224 218 _________OP___ -1 12.1000 82.2000 TC 30 11.7313 82.1375 1 7 7
1899285N11082 1899 40 NI BB NOT_NAMED 1899-10-12 09:00:00 TS 12.2829 82.2158 main 218 217 _________PP___ -1 12.4425 82.2426 TC 30 12.0700 82.1801 1 7 8
1899285N11082 1899 40 NI BB NOT_NAMED 1899-10-12 12:00:00 TS 12.6119 82.2663 main 228 219 _________OP___ -1 12.8000 82.3000 TC 30 12.4238 82.2326 1 7 10
1899285N11082 1899 40 NI BB NOT_NAMED 1899-10-12 15:00:00 TS 12.9963 82.3463 main 219 219 _________PO___ -1 13.1925 82.3925 TC 30 12.8000 82.3000 1 8 12
1899285N11082 1899 40 NI BB NOT_NAMED 1899-10-12 18:00:00 TS 13.4009 82.4428 main 227 227 _________OP___ -1 13.6000 82.5000 TC 30 13.2019 82.3855 1 8 13
1899285N11082 1899 40 NI BB NOT_NAMED 1899-10-12 21:00:00 TS 13.8150 82.5424 main 237 237 _________PP___ -1 14.0150 82.6000 TC 30 13.6150 82.4849 1 8 14
1899285N11082 1899 40 NI BB NOT_NAMED 1899-10-13 00:00:00 TS 14.2103 82.6459 main 248 228 _________OP___ -1 14.4000 82.7000 TC 30 14.0206 82.5918 1 8 15
1899285N11082 1899 40 NI BB NOT_NAMED 1899-10-13 03:00:00 TS 14.5575 82.7500 main 223 203 _________PO___ -1 14.7150 82.8000 TC 30 14.4000 82.7000 1 7 16
1899285N11082 1899 40 NI BB NOT_NAMED 1899-10-13 06:00:00 TS 14.8603 82.8420 main 193 178 _________OP___ -1 15.0000 82.9000 TC 30 14.7205 82.7841 1 6 16
1899285N11082 1899 40 NI BB NOT_NAMED 1899-10-13 09:00:00 TS 15.1537 82.9278 main 168 153 _________PP___ -1 15.2925 82.9851 TC 30 15.0149 82.8705 1 6 18
1899285N11082 1899 40 NI BB NOT_NAMED 1899-10-13 12:00:00 TS 15.4509 83.0358 main 144 131 _________OP___ -1 15.6000 83.1000 TC 30 15.3018 82.9717 1 7 23
1899285N11082 1899 40 NI BB NOT_NAMED 1899-10-13 15:00:00 TS 15.7713 83.1925 main 131 120 _________PO___ -1 15.9425 83.2850 TC 31 15.6000 83.1000 1 7 26
1899285N11082 1899 40 NI BB NOT_NAMED 1899-10-13 18:00:00 TS 16.1035 83.3658 main 130 120 _________OP___ -1 16.3000 83.5000 TC 32 15.9069 83.2315 1 7 26
1899285N11082 1899 40 NI BB NOT_NAMED 1899-10-13 21:00:00 TS 16.4259 83.5298 main 125 104 _________PP___ -1 16.6198 83.6630 TC 33 16.2320 83.3965 1 8 28
1899285N11082 1899 40 NI BB NOT_NAMED 1899-10-14 00:00:00 TS 16.7956 83.7566 main 109 92 _________OP___ -1 17.0000 83.9000 TC 34 16.5911 83.6132 1 10 33
1899285N11082 1899 40 NI BB NOT_NAMED 1899-10-14 03:00:00 TS 17.2638 84.1061 main 92 70 _________PO___ -1 17.5276 84.3123 TC 36 17.0000 83.9000 2 12 37
1899285N11082 1899 40 NI BB NOT_NAMED 1899-10-14 06:00:00 TS 17.7895 84.5348 main 70 69 _________OP___ -1 18.1000 84.8000 TC 39 17.4790 84.2696 2 13 38
1899285N11082 1899 40 NI BB NOT_NAMED 1899-10-14 09:00:00 TS 18.3063 84.9763 main 69 61 _________PP___ -1 18.6073 85.2429 TC 42 18.0053 84.7097 2 14 40
1899285N11082 1899 40 NI BB NOT_NAMED 1899-10-14 12:00:00 TS 18.8269 85.4475 main 76 56 _________OP___ -1 19.1000 85.7000 TC 45 18.5539 85.1949 2 14 41
1899285N11082 1899 40 NI BB NOT_NAMED 1899-10-14 15:00:00 TS 19.3500 85.9464 main 56 22 _________PO___ -1 19.5999 86.1927 TC 45 19.1000 85.7000 3 14 42
1899285N11082 1899 40 NI BB NOT_NAMED 1899-10-14 18:00:00 TS 19.8679 86.4548 main 15 10 _________OP___ -1 20.1000 86.7000 TC 45 19.6358 86.2096 3 14 43
1899285N11082 1899 40 NI BB NOT_NAMED 1899-10-14 21:00:00 TS 20.3914 86.9758 main 23 15 _________PP___ -1 20.6225 87.2224 TC 45 20.1603 86.7293 3 14 43
1899285N11082 1899 40 NI BB NOT_NAMED 1899-10-15 00:00:00 TS 20.8773 87.4672 main 53 45 _________OP___ -1 21.1000 87.7000 TC 45 20.6546 87.2345 3 12 43
1899285N11082 1899 40 NI BB NOT_NAMED 1899-10-15 03:00:00 TS 21.2899 87.8865 main 45 0 _________PO___ -1 21.4798 88.0730 TC 41 21.1000 87.7000 3 11 44
1899285N11082 1899 40 NI BB NOT_NAMED 1899-10-15 06:00:00 TS 21.6393 88.2493 main 0 0 _________OP___ -1 21.8000 88.4000 TC 37 21.4786 88.0987 3 9 45
1899285N11082 1899 40 NI BB NOT_NAMED 1899-10-15 09:00:00 TS 21.9583 88.6060 main 0 0 _________PP___ -1 22.1075 88.7577 TC 33 21.8091 88.4543 3 9 46
1899285N11082 1899 40 NI BB NOT_NAMED 1899-10-15 12:00:00 TS 22.2550 88.9414 main 0 0 _________OP___ -1 22.4000 89.1000 TC 30 22.1100 88.7828 3 8 45
1899285N11082 1899 40 NI BB NOT_NAMED 1899-10-15 15:00:00 TS 22.5499 89.2501 main 0 0 _________PO___ -1 22.6999 89.4002 TC 30 22.4000 89.1000 1 8 44
1899285N11082 1899 40 NI BB NOT_NAMED 1899-10-15 18:00:00 TS 22.8251 89.5397 main 0 0 _________OP___ -1 23.0000 89.7000 TC 30 22.6940 89.4195 1 8 45
1899285N11082 1899 40 NI BB NOT_NAMED 1899-10-15 21:00:00 TS 23.1161 89.8608 main 0 0 _________PP___ -1 23.3002 90.0371 TC 30 22.9933 89.7433 1 8 46
1899285N11082 1899 40 NI BB NOT_NAMED 1899-10-16 00:00:00 TS 23.3974 90.1803 main 0 0 _________OP___ -1 23.6000 90.4000 TC 30 23.2960 90.0704 1 7 46
1899285N11082 1899 40 NI BB NOT_NAMED 1899-10-16 03:00:00 NR 23.6000 90.4000 main 0 __________O___ -1 TC 23.6000 90.4000 1 6 45

IBTrACS Databaseについて

本データベースは、米国NOAAが公開する1842年以降の世界の熱帯低気圧のベストトラックデータアーカイブInternational Best Track Archive for Climate Stewardship (IBTrACS)を、ウェブで閲覧しやすい形式に変換したものです。

最終更新日:2021-12-06